Time;durP1;ratioP1;P1;durP2;ratioP2;P2;SDS_P1;SDS_P2;PMS_P1;PMS_P2;Temp;Humidity;BMP_temperature;BMP_pressure;BME280_temperature;BME280_humidity;BME280_pressure;Samples;Min_cycle;Max_cycle;Signal;HPM_P1;HPM_P2
2022/12/29 00:00:53;;;;;;;7.93;6.97;;;10.40;99.90;;;;;;5085598;28;20040;-45
2022/12/29 00:03:18;;;;;;;8.68;7.00;;;10.30;99.90;;;;;;5080534;28;20044;-46
2022/12/29 00:05:44;;;;;;;8.70;7.40;;;10.30;99.90;;;;;;5081056;28;20126;-46
2022/12/29 00:08:10;;;;;;;8.32;7.18;;;10.50;99.90;;;;;;5068240;28;20086;-47
2022/12/29 00:10:35;;;;;;;8.20;6.85;;;10.40;99.90;;;;;;5070286;28;20041;-48
2022/12/29 00:15:45;;;;;;;8.90;6.90;;;10.40;99.90;;;;;;5070454;28;20032;-46
2022/12/29 00:18:11;;;;;;;9.13;6.75;;;10.50;99.90;;;;;;5070590;28;20123;-46
2022/12/29 00:37:14;;;;;;;9.13;5.57;;;10.60;99.90;;;;;;5080443;28;20041;-46
2022/12/29 00:45:08;;;;;;;6.63;5.15;;;10.60;99.90;;;;;;5070885;28;20115;-48
2022/12/29 00:47:34;;;;;;;6.60;5.25;;;10.50;99.90;;;;;;5070310;28;20120;-47
2022/12/29 00:49:59;;;;;;;6.20;4.90;;;10.60;99.90;;;;;;5069511;28;20445;-48
2022/12/29 00:52:25;;;;;;;7.03;5.20;;;10.40;99.90;;;;;;5073180;28;20051;-47
2022/12/29 00:54:51;;;;;;;8.60;5.00;;;10.40;99.90;;;;;;5076387;28;20040;-49
2022/12/29 00:57:16;;;;;;;6.97;4.85;;;10.40;99.90;;;;;;5078538;28;20106;-48
2022/12/29 00:59:42;;;;;;;6.20;4.88;;;10.40;99.90;;;;;;5069744;28;20036;-45
2022/12/29 01:02:09;;;;;;;7.10;4.57;;;10.50;99.90;;;;;;5070282;28;20036;-46
2022/12/29 01:04:35;;;;;;;5.38;3.92;;;10.60;99.90;;;;;;5070266;28;20032;-46
2022/12/29 01:07:00;;;;;;;5.65;4.18;;;10.50;99.90;;;;;;5069873;28;20488;-49
2022/12/29 01:12:11;;;;;;;7.35;4.25;;;10.70;99.90;;;;;;5068547;28;20506;-48
2022/12/29 01:14:37;;;;;;;5.00;3.33;;;10.60;99.90;;;;;;5068574;28;20101;-48
2022/12/29 01:17:04;;;;;;;5.15;3.22;;;10.70;99.90;;;;;;5069695;28;20072;-47
2022/12/29 01:19:30;;;;;;;5.22;3.58;;;10.80;99.90;;;;;;5069158;28;20068;-49
2022/12/29 01:21:56;;;;;;;4.85;3.33;;;10.70;99.90;;;;;;5069519;28;20047;-47
2022/12/29 01:24:22;;;;;;;5.07;3.40;;;10.70;99.90;;;;;;5073269;28;20040;-49
2022/12/29 01:26:48;;;;;;;4.78;2.83;;;10.70;99.90;;;;;;5068105;28;20032;-49
2022/12/29 01:29:14;;;;;;;4.40;2.83;;;10.70;99.90;;;;;;5069784;28;20044;-47
2022/12/29 01:31:40;;;;;;;6.32;2.97;;;10.70;99.90;;;;;;5069248;28;20066;-49
2022/12/29 01:34:06;;;;;;;4.40;3.10;;;10.70;99.90;;;;;;5086997;28;20032;-47
2022/12/29 01:36:33;;;;;;;5.35;2.80;;;10.80;99.90;;;;;;5075336;28;20483;-47
2022/12/29 01:38:58;;;;;;;4.53;2.97;;;10.70;99.90;;;;;;5080049;28;20036;-48
2022/12/29 01:41:24;;;;;;;4.38;2.83;;;10.70;99.90;;;;;;5067938;28;20037;-47
2022/12/29 01:43:52;;;;;;;4.72;3.05;;;10.70;99.90;;;;;;5069396;28;20036;-48
2022/12/29 01:46:40;;;;;;;4.28;2.97;;;10.90;99.90;;;;;;5069607;28;20040;-46
2022/12/29 01:49:18;;;;;;;5.45;3.15;;;10.80;99.90;;;;;;5071191;28;20403;-48
2022/12/29 01:51:52;;;;;;;4.72;2.75;;;10.90;99.90;;;;;;5078403;28;20105;-49
2022/12/29 01:54:35;;;;;;;4.78;2.63;;;10.90;99.90;;;;;;5079759;28;20043;-46
2022/12/29 01:57:05;;;;;;;4.20;2.20;;;10.80;99.90;;;;;;5073186;28;20063;-48
2022/12/29 01:59:35;;;;;;;5.07;2.40;;;10.80;99.90;;;;;;5074182;28;20024;-48
2022/12/29 02:02:01;;;;;;;4.85;2.33;;;11.00;99.90;;;;;;5081565;28;20049;-49
2022/12/29 02:04:31;;;;;;;4.00;2.40;;;10.90;99.90;;;;;;5078971;28;20055;-48
2022/12/29 02:07:01;;;;;;;4.40;2.10;;;10.90;99.90;;;;;;5073275;28;20040;-47
2022/12/29 02:09:27;;;;;;;4.10;2.50;;;10.90;99.90;;;;;;5072930;28;20487;-48
2022/12/29 02:11:53;;;;;;;4.82;2.60;;;10.90;99.90;;;;;;5080785;28;20040;-48
2022/12/29 02:14:19;;;;;;;4.72;2.30;;;10.80;99.90;;;;;;5074400;28;20045;-46
2022/12/29 02:17:11;;;;;;;6.53;2.33;;;10.70;99.90;;;;;;5073140;28;20374;-49
2022/12/29 02:20:04;;;;;;;3.95;2.30;;;10.70;99.90;;;;;;5078455;28;20076;-46
2022/12/29 02:22:48;;;;;;;4.47;2.45;;;10.80;99.90;;;;;;5075575;28;20044;-49
2022/12/29 02:25:39;;;;;;;4.05;2.42;;;10.80;99.90;;;;;;5082204;28;20047;-47
2022/12/29 02:28:28;;;;;;;3.97;2.30;;;10.80;99.90;;;;;;5072791;28;20032;-46
2022/12/29 02:31:11;;;;;;;4.82;2.30;;;10.70;99.90;;;;;;5072124;28;20036;-47
2022/12/29 02:34:12;;;;;;;4.03;2.70;;;10.70;99.90;;;;;;5072713;28;20074;-48
2022/12/29 02:36:45;;;;;;;4.35;2.25;;;10.60;99.90;;;;;;5065639;28;20051;-47
2022/12/29 02:39:22;;;;;;;3.10;2.00;;;10.60;99.90;;;;;;5059999;28;20115;-48
2022/12/29 02:42:00;;;;;;;4.47;2.22;;;10.50;99.90;;;;;;5074256;28;20045;-46
2022/12/29 02:44:28;;;;;;;3.53;2.00;;;10.70;99.90;;;;;;5080176;28;20051;-49
2022/12/29 02:47:09;;;;;;;5.28;2.22;;;10.60;99.90;;;;;;5070943;28;20048;-47
2022/12/29 02:49:40;;;;;;;3.58;1.92;;;10.60;99.90;;;;;;5072385;28;20345;-48
2022/12/29 02:52:14;;;;;;;4.20;2.13;;;10.60;99.90;;;;;;5074271;28;20557;-46
2022/12/29 02:54:40;;;;;;;4.03;2.20;;;10.50;99.90;;;;;;5072337;28;20116;-47
2022/12/29 02:57:20;;;;;;;3.83;2.20;;;10.50;99.90;;;;;;5072364;28;20040;-48
2022/12/29 02:59:52;;;;;;;3.53;2.03;;;10.60;99.90;;;;;;5071885;28;20119;-46
2022/12/29 03:02:24;;;;;;;4.40;2.00;;;10.40;99.90;;;;;;5078152;28;20127;-48
2022/12/29 03:05:20;;;;;;;4.70;2.03;;;10.60;99.90;;;;;;5072191;28;20041;-46
2022/12/29 03:08:05;;;;;;;4.03;2.30;;;10.40;99.90;;;;;;5072255;28;20041;-48
2022/12/29 03:10:44;;;;;;;4.68;2.15;;;10.50;99.90;;;;;;5071703;28;20532;-46
2022/12/29 03:16:47;;;;;;;4.25;2.17;;;10.60;99.90;;;;;;5070276;28;20051;-47
2022/12/29 03:19:17;;;;;;;4.93;2.10;;;10.50;99.90;;;;;;5071889;28;20036;-49
2022/12/29 03:24:38;;;;;;;3.55;1.90;;;10.60;99.90;;;;;;5071701;28;20263;-48
2022/12/29 03:27:08;;;;;;;6.35;2.20;;;10.50;99.90;;;;;;5053541;28;20048;-47
2022/12/29 03:29:41;;;;;;;4.97;2.22;;;10.50;99.90;;;;;;5072464;28;20040;-48
2022/12/29 03:32:12;;;;;;;6.40;2.03;;;10.60;99.90;;;;;;5072279;28;20131;-47
2022/12/29 03:34:38;;;;;;;6.53;2.03;;;10.60;99.90;;;;;;5071559;28;20048;-47
2022/12/29 03:37:12;;;;;;;6.45;1.98;;;10.60;99.90;;;;;;5071118;28;20040;-46
2022/12/29 03:39:38;;;;;;;6.85;2.30;;;10.60;99.90;;;;;;5069544;28;20119;-47
2022/12/29 03:42:16;;;;;;;7.57;1.90;;;10.60;99.90;;;;;;5073642;28;20467;-46
2022/12/29 03:44:43;;;;;;;7.30;2.17;;;10.50;99.90;;;;;;5071942;28;20094;-47
2022/12/29 03:47:11;;;;;;;6.45;2.45;;;10.50;99.90;;;;;;5071837;28;20471;-46
2022/12/29 03:49:37;;;;;;;7.38;2.00;;;10.20;99.90;;;;;;5071096;28;20386;-46
2022/12/29 03:52:03;;;;;;;6.47;2.40;;;10.10;99.90;;;;;;5081985;28;20040;-47
2022/12/29 03:54:29;;;;;;;8.13;2.45;;;10.10;99.90;;;;;;5075135;28;20487;-46
2022/12/29 03:56:55;;;;;;;5.97;2.00;;;10.10;99.90;;;;;;5070864;28;20033;-47
2022/12/29 03:59:21;;;;;;;4.55;1.60;;;10.10;99.90;;;;;;5071912;28;20047;-49
2022/12/29 04:01:46;;;;;;;7.72;1.60;;;10.10;99.90;;;;;;5071312;28;20037;-46
2022/12/29 04:04:12;;;;;;;5.15;1.48;;;10.10;99.90;;;;;;5070538;28;20036;-48
2022/12/29 04:06:38;;;;;;;5.90;1.88;;;9.90;99.90;;;;;;5070813;28;20029;-50
2022/12/29 04:09:04;;;;;;;6.68;2.30;;;10.00;99.90;;;;;;5071651;28;20169;-46
2022/12/29 04:11:30;;;;;;;6.55;2.08;;;9.90;99.90;;;;;;5067976;28;20033;-46
2022/12/29 04:13:55;;;;;;;9.18;1.80;;;9.90;99.90;;;;;;5072312;28;20032;-47
2022/12/29 04:16:21;;;;;;;8.75;1.80;;;10.10;99.90;;;;;;5078684;28;20032;-46
2022/12/29 04:18:47;;;;;;;7.57;1.65;;;10.00;99.90;;;;;;5085870;28;20121;-49
2022/12/29 04:21:13;;;;;;;5.72;1.80;;;10.20;99.90;;;;;;5087794;28;20052;-48
2022/12/29 04:23:39;;;;;;;5.88;1.75;;;10.10;99.90;;;;;;5071680;28;20134;-46
2022/12/29 04:26:07;;;;;;;6.13;1.73;;;10.00;99.90;;;;;;5070821;28;20040;-47
2022/12/29 04:28:33;;;;;;;8.93;1.80;;;9.90;99.90;;;;;;5069364;28;20040;-46
2022/12/29 04:30:59;;;;;;;6.85;1.77;;;10.00;99.90;;;;;;5072139;28;20048;-47
2022/12/29 04:33:25;;;;;;;10.85;1.63;;;9.90;99.90;;;;;;5070470;28;20032;-47
2022/12/29 04:35:52;;;;;;;7.43;1.77;;;10.00;99.90;;;;;;5077697;28;20550;-46
2022/12/29 04:38:18;;;;;;;9.07;1.83;;;10.00;99.90;;;;;;5080688;28;20126;-47
2022/12/29 04:40:44;;;;;;;8.02;1.60;;;9.90;99.90;;;;;;5072509;28;20040;-48
2022/12/29 04:43:11;;;;;;;12.70;2.13;;;9.90;99.90;;;;;;5068686;28;20048;-48
2022/12/29 04:45:36;;;;;;;8.25;2.00;;;10.00;99.90;;;;;;5078110;28;20067;-48
2022/12/29 04:48:02;;;;;;;7.70;1.60;;;10.00;99.90;;;;;;5071719;28;20436;-46
2022/12/29 04:50:28;;;;;;;7.40;1.27;;;9.90;99.90;;;;;;5078318;28;20042;-48
2022/12/29 04:52:54;;;;;;;9.68;1.63;;;9.90;99.90;;;;;;5075474;28;20039;-47
2022/12/29 04:55:20;;;;;;;9.80;2.17;;;9.90;99.90;;;;;;5077744;28;20123;-49
2022/12/29 04:57:46;;;;;;;8.63;1.77;;;9.90;99.90;;;;;;5070112;28;20555;-46
2022/12/29 05:00:13;;;;;;;10.70;1.30;;;9.90;99.90;;;;;;5074193;28;20028;-49
2022/12/29 05:02:38;;;;;;;10.23;1.20;;;10.00;99.90;;;;;;5087639;28;20040;-47
2022/12/29 05:05:05;;;;;;;6.15;1.10;;;10.00;99.90;;;;;;5079839;28;20032;-47
2022/12/29 05:07:33;;;;;;;8.10;1.48;;;9.90;99.90;;;;;;5069836;28;20036;-47
2022/12/29 05:09:59;;;;;;;5.72;1.17;;;9.80;99.90;;;;;;5069340;28;20048;-47
2022/12/29 05:12:24;;;;;;;6.93;1.00;;;9.80;99.90;;;;;;5076884;28;20032;-47
2022/12/29 05:14:50;;;;;;;5.18;1.10;;;9.80;99.90;;;;;;5074927;28;20047;-49
2022/12/29 05:17:16;;;;;;;5.85;1.23;;;9.80;99.90;;;;;;5079298;28;20399;-48
2022/12/29 05:19:42;;;;;;;4.90;1.50;;;9.70;99.90;;;;;;5070421;28;20442;-49
2022/12/29 05:22:07;;;;;;;9.10;1.60;;;9.80;99.90;;;;;;5073449;28;20067;-47
2022/12/29 05:24:33;;;;;;;7.80;1.50;;;9.80;99.90;;;;;;5069969;28;20447;-48
2022/12/29 05:26:58;;;;;;;6.68;1.38;;;9.80;99.90;;;;;;5070809;28;20155;-47
2022/12/29 05:29:24;;;;;;;7.90;1.52;;;9.90;99.90;;;;;;5080279;28;20041;-47
2022/12/29 05:31:50;;;;;;;7.78;1.98;;;9.80;99.90;;;;;;5073661;28;20483;-49
2022/12/29 05:34:15;;;;;;;7.60;1.67;;;9.80;99.90;;;;;;5079678;28;20040;-48
2022/12/29 05:36:41;;;;;;;7.55;1.50;;;9.80;99.90;;;;;;5077687;28;20089;-46
2022/12/29 05:39:09;;;;;;;6.03;1.38;;;9.80;99.90;;;;;;5077346;28;20054;-47
2022/12/29 05:41:35;;;;;;;7.30;1.50;;;9.70;99.90;;;;;;5074096;28;20036;-47
2022/12/29 05:44:01;;;;;;;5.35;1.58;;;9.70;99.90;;;;;;5074206;28;20105;-46
2022/12/29 05:46:27;;;;;;;7.15;1.73;;;9.70;99.90;;;;;;5077529;28;20455;-46
2022/12/29 05:48:53;;;;;;;8.50;1.75;;;9.70;99.90;;;;;;5079686;28;20079;-47
2022/12/29 05:51:18;;;;;;;8.20;1.77;;;9.70;99.90;;;;;;5077614;28;20048;-47
2022/12/29 05:53:44;;;;;;;12.07;2.00;;;9.60;99.90;;;;;;5073573;28;20437;-48
2022/12/29 05:56:10;;;;;;;9.30;1.60;;;9.60;99.90;;;;;;5073827;28;20055;-47
2022/12/29 05:58:35;;;;;;;7.57;1.70;;;9.60;99.90;;;;;;5082090;28;20039;-48
2022/12/29 06:01:01;;;;;;;9.35;1.75;;;9.50;99.90;;;;;;5084545;28;20391;-48
2022/12/29 06:03:27;;;;;;;8.60;1.75;;;9.50;99.90;;;;;;5075185;28;20048;-46
2022/12/29 06:05:52;;;;;;;13.52;1.77;;;9.50;99.90;;;;;;5073235;28;20033;-46
2022/12/29 06:08:18;;;;;;;11.93;2.42;;;9.40;99.90;;;;;;5075152;28;20048;-47
2022/12/29 06:10:44;;;;;;;13.57;1.75;;;9.40;99.90;;;;;;5072150;28;20044;-46
2022/12/29 06:13:09;;;;;;;11.98;1.73;;;9.50;99.90;;;;;;5073467;28;20036;-50
2022/12/29 06:15:35;;;;;;;8.82;1.75;;;9.50;99.90;;;;;;5077012;28;20130;-46
2022/12/29 06:18:01;;;;;;;7.88;1.45;;;9.60;99.90;;;;;;5086993;28;20387;-46
2022/12/29 06:20:27;;;;;;;5.43;1.35;;;9.50;99.90;;;;;;5078189;28;20044;-47
2022/12/29 06:22:52;;;;;;;7.28;1.55;;;9.50;99.90;;;;;;5071909;28;20566;-47
2022/12/29 06:25:18;;;;;;;12.60;2.28;;;9.50;99.90;;;;;;5077769;28;20434;-51
2022/12/29 06:27:44;;;;;;;9.80;1.83;;;9.50;99.90;;;;;;5075669;28;20052;-48
2022/12/29 06:30:10;;;;;;;8.10;1.80;;;9.50;99.90;;;;;;5074606;28;20452;-50
2022/12/29 06:32:36;;;;;;;11.27;2.03;;;9.40;99.90;;;;;;5081514;28;20261;-49
2022/12/29 06:35:02;;;;;;;8.40;1.73;;;9.50;99.90;;;;;;5075773;28;20042;-48
2022/12/29 06:37:28;;;;;;;11.82;2.03;;;9.60;99.90;;;;;;5078193;28;20102;-47
2022/12/29 06:39:54;;;;;;;10.10;1.67;;;9.60;99.90;;;;;;5078504;28;20032;-47
2022/12/29 06:42:20;;;;;;;10.13;1.83;;;9.60;99.90;;;;;;5074657;28;20038;-48
2022/12/29 06:44:45;;;;;;;9.40;1.70;;;9.60;99.90;;;;;;5074169;28;20024;-47
2022/12/29 06:47:12;;;;;;;12.55;1.77;;;9.70;99.90;;;;;;5075704;28;20076;-46
2022/12/29 06:49:37;;;;;;;12.38;2.13;;;9.70;99.90;;;;;;5074608;28;20036;-48
2022/12/29 06:52:04;;;;;;;8.95;1.90;;;9.70;99.90;;;;;;5071186;28;20063;-46
2022/12/29 06:54:30;;;;;;;8.23;1.80;;;9.60;99.90;;;;;;5080008;28;20102;-47
2022/12/29 06:56:56;;;;;;;15.85;2.13;;;9.60;99.90;;;;;;5074316;28;20093;-49
2022/12/29 06:59:22;;;;;;;10.95;2.22;;;9.60;99.90;;;;;;5084368;28;20070;-49
2022/12/29 07:01:48;;;;;;;10.63;2.00;;;9.50;99.90;;;;;;5081431;28;20036;-46
2022/12/29 07:04:14;;;;;;;11.80;2.10;;;9.50;99.90;;;;;;5071670;28;20041;-46
2022/12/29 07:06:40;;;;;;;10.32;2.03;;;9.50;99.90;;;;;;5072890;28;20072;-47
2022/12/29 07:09:07;;;;;;;10.07;2.03;;;9.50;99.90;;;;;;5072962;28;20036;-46
2022/12/29 07:11:33;;;;;;;10.77;2.05;;;9.40;99.90;;;;;;5072122;28;20041;-46
2022/12/29 07:13:59;;;;;;;11.00;2.33;;;9.40;99.90;;;;;;5072719;28;20032;-47
2022/12/29 07:16:24;;;;;;;12.93;2.22;;;9.40;99.90;;;;;;5073297;28;20047;-47
2022/12/29 07:18:52;;;;;;;12.98;2.28;;;9.40;99.90;;;;;;5070505;28;20032;-47
2022/12/29 07:21:18;;;;;;;9.50;1.60;;;9.40;99.90;;;;;;5071959;28;20145;-48
2022/12/29 07:23:44;;;;;;;9.38;1.60;;;9.50;99.90;;;;;;5072787;28;20048;-46
2022/12/29 07:26:12;;;;;;;11.85;1.65;;;9.50;99.90;;;;;;5065321;28;20048;-47
2022/12/29 07:28:38;;;;;;;16.30;2.20;;;9.50;99.90;;;;;;5067129;28;20043;-47
2022/12/29 07:31:05;;;;;;;10.60;2.10;;;9.50;99.90;;;;;;5069643;28;20052;-48
2022/12/29 07:33:32;;;;;;;10.43;2.03;;;9.60;99.90;;;;;;5067158;28;20426;-47
2022/12/29 07:35:58;;;;;;;10.98;2.40;;;9.60;99.90;;;;;;5065223;28;20040;-45
2022/12/29 07:38:24;;;;;;;9.65;2.03;;;9.50;99.90;;;;;;5060091;28;20475;-47
2022/12/29 07:40:49;;;;;;;11.60;2.22;;;9.50;99.90;;;;;;5058592;28;20047;-47
2022/12/29 07:43:15;;;;;;;11.40;2.35;;;9.50;99.90;;;;;;5057913;28;20093;-47
2022/12/29 07:45:41;;;;;;;11.77;2.03;;;9.40;99.90;;;;;;5059908;28;20036;-48
2022/12/29 07:48:08;;;;;;;12.80;2.05;;;9.50;99.90;;;;;;5062068;28;20076;-45
2022/12/29 07:50:37;;;;;;;12.52;1.98;;;9.40;99.90;;;;;;5058122;28;20047;-46
2022/12/29 07:53:03;;;;;;;11.77;2.30;;;9.40;99.90;;;;;;5056426;28;20040;-48
2022/12/29 07:55:29;;;;;;;9.73;1.92;;;9.40;99.90;;;;;;5060040;28;20625;-48
2022/12/29 07:57:56;;;;;;;12.82;2.20;;;9.40;99.90;;;;;;5061798;28;20387;-50
2022/12/29 08:00:22;;;;;;;12.02;2.58;;;9.40;99.90;;;;;;5060212;28;20048;-47
2022/12/29 08:02:48;;;;;;;17.00;2.80;;;9.40;99.90;;;;;;5060644;28;20043;-49
2022/12/29 08:05:13;;;;;;;17.52;2.72;;;9.50;99.90;;;;;;5060957;28;20487;-46
2022/12/29 08:07:39;;;;;;;12.40;2.13;;;9.40;99.90;;;;;;5060484;28;20384;-46
2022/12/29 08:10:05;;;;;;;16.55;2.65;;;9.40;99.90;;;;;;5059024;28;20495;-46
2022/12/29 08:12:31;;;;;;;16.02;2.83;;;9.40;99.90;;;;;;5061342;28;20049;-47
2022/12/29 08:14:57;;;;;;;20.08;2.92;;;9.40;99.90;;;;;;5060434;28;20404;-46
2022/12/29 08:17:23;;;;;;;16.80;2.33;;;9.50;99.90;;;;;;5057547;28;20137;-48
2022/12/29 08:19:48;;;;;;;17.38;2.90;;;9.50;99.90;;;;;;5059525;28;20124;-47
2022/12/29 08:22:15;;;;;;;16.42;2.38;;;9.50;99.90;;;;;;5059469;28;20575;-47
2022/12/29 08:24:40;;;;;;;16.75;3.53;;;9.50;99.90;;;;;;5059364;28;20527;-47
2022/12/29 08:27:06;;;;;;;13.73;2.20;;;9.50;99.90;;;;;;5058419;28;20041;-47
2022/12/29 08:29:32;;;;;;;13.70;2.45;;;9.50;99.90;;;;;;5060788;28;20070;-49
2022/12/29 08:31:58;;;;;;;14.63;2.28;;;9.50;99.90;;;;;;5059292;28;20132;-46
2022/12/29 08:34:23;;;;;;;11.80;2.30;;;9.60;99.90;;;;;;5058396;28;20071;-46
2022/12/29 08:36:49;;;;;;;11.82;2.28;;;9.60;99.90;;;;;;5055711;28;20414;-49
2022/12/29 08:39:15;;;;;;;13.65;2.25;;;9.60;99.90;;;;;;5059748;28;20037;-47
2022/12/29 08:41:41;;;;;;;12.55;2.78;;;9.60;99.90;;;;;;5057744;28;20044;-49
2022/12/29 08:44:06;;;;;;;9.13;1.42;;;9.60;99.90;;;;;;5056676;28;20078;-47
2022/12/29 08:46:32;;;;;;;12.63;1.58;;;9.60;99.90;;;;;;5060344;28;20032;-47
2022/12/29 08:48:58;;;;;;;13.68;2.00;;;9.60;99.90;;;;;;5058550;28;20125;-47
2022/12/29 08:51:23;;;;;;;8.05;1.90;;;9.60;99.90;;;;;;5057341;28;20041;-47
2022/12/29 08:53:50;;;;;;;10.20;2.55;;;9.60;99.90;;;;;;5055974;28;20036;-50
2022/12/29 08:56:16;;;;;;;11.85;2.10;;;9.60;99.90;;;;;;5058879;28;20426;-48
2022/12/29 08:58:41;;;;;;;13.65;2.35;;;9.60;99.90;;;;;;5059503;28;20440;-46
2022/12/29 09:01:09;;;;;;;12.38;2.35;;;9.50;99.90;;;;;;5059076;28;20128;-45
2022/12/29 09:03:34;;;;;;;12.75;2.22;;;9.40;99.90;;;;;;5058060;28;20039;-47
2022/12/29 09:06:00;;;;;;;16.48;2.17;;;9.30;99.90;;;;;;5052988;28;20037;-46
2022/12/29 09:08:26;;;;;;;10.93;2.47;;;9.30;99.90;;;;;;5055381;28;20044;-46
2022/12/29 09:10:52;;;;;;;11.73;2.53;;;9.30;99.90;;;;;;5053446;28;20174;-51
2022/12/29 09:13:19;;;;;;;17.05;3.25;;;9.30;99.90;;;;;;5054696;28;20075;-48
2022/12/29 09:15:45;;;;;;;14.80;2.88;;;9.20;99.90;;;;;;5061041;28;20031;-46
2022/12/29 09:18:12;;;;;;;15.93;2.42;;;9.30;99.90;;;;;;5050180;28;20037;-49
2022/12/29 09:20:38;;;;;;;13.50;2.42;;;9.20;99.90;;;;;;5052656;28;20484;-46
2022/12/29 09:23:06;;;;;;;12.65;2.40;;;9.30;99.90;;;;;;5051222;28;20049;-46
2022/12/29 09:25:31;;;;;;;13.98;2.00;;;9.30;99.90;;;;;;5048409;28;20506;-46
2022/12/29 09:27:57;;;;;;;13.18;2.28;;;9.30;99.90;;;;;;5056265;28;20047;-49
2022/12/29 09:30:23;;;;;;;12.30;2.30;;;9.30;99.90;;;;;;5060303;28;20043;-47
2022/12/29 09:32:49;;;;;;;18.73;2.78;;;9.30;99.90;;;;;;5057099;28;20093;-48
2022/12/29 09:35:16;;;;;;;13.63;2.45;;;9.20;99.90;;;;;;5054197;28;20035;-48
2022/12/29 09:37:43;;;;;;;16.27;2.63;;;9.20;99.90;;;;;;5056876;28;20072;-49
2022/12/29 09:40:25;;;;;;;16.92;3.08;;;9.20;99.90;;;;;;5059844;28;20033;-46
2022/12/29 09:43:01;;;;;;;14.38;2.30;;;9.30;99.90;;;;;;5059565;28;20064;-46
2022/12/29 09:45:36;;;;;;;10.75;2.05;;;9.30;99.90;;;;;;5057220;28;20119;-49
2022/12/29 09:48:07;;;;;;;13.13;2.50;;;9.30;99.90;;;;;;5058521;28;20033;-46
2022/12/29 09:50:38;;;;;;;12.93;2.25;;;9.40;99.90;;;;;;5063439;28;20115;-47
2022/12/29 09:53:20;;;;;;;11.95;2.40;;;9.40;99.90;;;;;;5066206;28;20029;-48
2022/12/29 09:55:52;;;;;;;11.50;2.10;;;9.40;99.90;;;;;;5050532;28;20363;-47
2022/12/29 09:58:39;;;;;;;14.10;2.47;;;9.40;99.90;;;;;;5066627;28;20063;-46
2022/12/29 10:01:13;;;;;;;12.45;2.20;;;9.40;99.90;;;;;;5064459;28;20036;-47
2022/12/29 10:03:50;;;;;;;11.48;2.40;;;9.40;99.90;;;;;;5061948;28;20040;-49
2022/12/29 10:06:49;;;;;;;10.85;2.22;;;9.30;99.90;;;;;;5070845;28;20079;-49
2022/12/29 10:09:39;;;;;;;14.05;2.08;;;9.20;99.90;;;;;;5059925;28;20131;-47
2022/12/29 10:12:42;;;;;;;12.48;2.08;;;9.20;99.90;;;;;;5067846;28;20472;-47
2022/12/29 10:15:26;;;;;;;10.55;2.33;;;9.20;99.90;;;;;;5049762;28;20052;-45
2022/12/29 10:18:02;;;;;;;12.20;2.33;;;9.30;99.90;;;;;;5055177;28;20040;-46
2022/12/29 10:20:34;;;;;;;10.73;2.47;;;9.30;99.90;;;;;;5072328;28;20259;-47
2022/12/29 10:23:14;;;;;;;11.50;2.28;;;9.40;99.90;;;;;;5072084;28;20061;-47
2022/12/29 10:25:42;;;;;;;13.98;2.38;;;9.30;99.90;;;;;;5068377;28;20508;-47
2022/12/29 10:28:30;;;;;;;14.65;2.38;;;9.40;99.90;;;;;;5072759;28;20483;-47
2022/12/29 10:30:58;;;;;;;12.88;2.47;;;9.40;99.90;;;;;;5071488;28;20040;-47
2022/12/29 10:33:34;;;;;;;11.98;2.00;;;9.40;99.90;;;;;;5073539;28;20391;-46
2022/12/29 10:36:12;;;;;;;12.63;2.40;;;9.50;99.90;;;;;;5067990;28;20565;-49
2022/12/29 10:38:46;;;;;;;8.93;1.90;;;9.40;99.90;;;;;;5070262;28;20086;-50
2022/12/29 10:41:21;;;;;;;9.40;1.92;;;9.40;99.90;;;;;;5071208;28;20400;-50
2022/12/29 10:43:49;;;;;;;10.63;1.90;;;9.40;99.90;;;;;;5068848;28;20036;-49
2022/12/29 10:46:22;;;;;;;10.60;2.08;;;9.40;99.90;;;;;;5069524;28;20044;-49
2022/12/29 10:48:48;;;;;;;8.77;2.07;;;9.30;99.90;;;;;;5066897;28;20052;-47
2022/12/29 10:51:29;;;;;;;9.45;2.15;;;9.30;99.90;;;;;;5071145;28;20392;-51
2022/12/29 10:54:01;;;;;;;9.95;2.00;;;9.30;99.90;;;;;;5082301;28;20040;-48
2022/12/29 10:56:33;;;;;;;9.73;2.53;;;9.30;99.90;;;;;;5085214;28;20044;-50
2022/12/29 10:59:07;;;;;;;11.27;2.53;;;9.30;99.90;;;;;;5075670;28;20040;-48
2022/12/29 11:01:41;;;;;;;9.68;1.98;;;9.40;99.90;;;;;;5073214;28;20169;-47
2022/12/29 11:04:25;;;;;;;10.00;2.13;;;9.40;99.90;;;;;;5070555;28;20074;-47
2022/12/29 11:06:51;;;;;;;11.48;2.60;;;9.30;99.90;;;;;;5084050;28;20045;-47
2022/12/29 11:09:34;;;;;;;14.90;2.53;;;9.40;99.90;;;;;;5077399;28;20044;-50
2022/12/29 11:11:59;;;;;;;11.75;2.25;;;9.30;99.90;;;;;;5070136;28;20032;-50
2022/12/29 11:14:30;;;;;;;16.00;2.90;;;9.40;99.90;;;;;;5082078;28;20457;-45
2022/12/29 11:17:01;;;;;;;12.07;2.40;;;9.40;99.90;;;;;;5070642;28;20112;-50
2022/12/29 11:19:30;;;;;;;12.32;2.85;;;9.30;99.90;;;;;;5076093;28;20115;-47
2022/12/29 11:22:13;;;;;;;15.50;3.22;;;9.20;99.90;;;;;;5072960;28;20060;-50
2022/12/29 11:24:45;;;;;;;17.00;2.85;;;9.40;99.90;;;;;;5079465;28;20051;-48
2022/12/29 11:27:22;;;;;;;12.13;3.17;;;9.40;99.90;;;;;;5072100;28;20032;-50
2022/12/29 11:29:49;;;;;;;15.32;3.03;;;9.40;99.90;;;;;;5073039;28;20448;-47
2022/12/29 11:32:19;;;;;;;19.90;3.38;;;9.50;99.90;;;;;;5071793;28;20095;-45
2022/12/29 11:34:45;;;;;;;18.90;3.58;;;9.70;99.90;;;;;;5061882;28;20531;-50
2022/12/29 11:37:12;;;;;;;16.02;3.05;;;10.10;99.90;;;;;;5059491;28;20180;-49
2022/12/29 11:39:41;;;;;;;15.52;3.50;;;10.30;99.90;;;;;;5060502;28;20039;-49
2022/12/29 11:42:15;;;;;;;15.25;2.83;;;10.30;99.90;;;;;;5057705;28;20429;-50
2022/12/29 11:44:47;;;;;;;18.90;3.35;;;10.20;99.90;;;;;;5059916;28;20127;-45
2022/12/29 11:47:25;;;;;;;13.27;2.90;;;10.20;99.90;;;;;;5060151;28;20476;-50
2022/12/29 11:49:53;;;;;;;17.00;3.10;;;10.20;99.90;;;;;;5059740;28;20055;-46
2022/12/29 11:52:29;;;;;;;17.75;3.33;;;10.20;99.90;;;;;;5060906;28;20052;-45
2022/12/29 11:54:56;;;;;;;17.25;3.03;;;10.40;99.90;;;;;;5065613;28;20131;-48
2022/12/29 11:57:24;;;;;;;16.80;3.10;;;10.30;99.90;;;;;;5071223;28;20387;-48
2022/12/29 11:59:54;;;;;;;18.08;3.78;;;10.10;99.90;;;;;;5066249;28;20040;-48
2022/12/29 12:02:29;;;;;;;9.40;2.40;;;10.00;99.90;;;;;;5068860;28;20135;-48
2022/12/29 12:05:10;;;;;;;19.65;3.00;;;9.80;99.90;;;;;;5069374;28;20119;-50
2022/12/29 12:07:54;;;;;;;13.63;2.95;;;9.80;99.90;;;;;;5066801;28;20487;-48
2022/12/29 12:10:29;;;;;;;13.95;2.35;;;9.60;99.90;;;;;;5069606;28;20041;-46
2022/12/29 12:13:22;;;;;;;12.93;2.75;;;9.30;99.90;;;;;;5070212;28;20037;-48
2022/12/29 12:16:01;;;;;;;9.18;2.50;;;9.30;99.90;;;;;;5070909;28;20047;-50
2022/12/29 12:18:34;;;;;;;16.42;2.78;;;9.30;99.90;;;;;;5070667;28;20046;-47
2022/12/29 12:21:18;;;;;;;22.60;4.00;;;9.40;99.90;;;;;;5063957;28;20058;-47
2022/12/29 12:24:25;;;;;;;25.42;3.75;;;9.40;99.90;;;;;;5068329;28;20044;-45
2022/12/29 12:27:02;;;;;;;15.40;3.50;;;9.60;99.90;;;;;;5070743;28;20075;-44
2022/12/29 12:30:07;;;;;;;21.17;3.42;;;9.50;99.90;;;;;;5068074;28;20120;-46
2022/12/29 12:32:48;;;;;;;17.08;3.22;;;9.60;99.90;;;;;;5063764;28;20048;-45
2022/12/29 12:35:17;;;;;;;14.07;2.78;;;9.50;99.90;;;;;;5066280;28;20434;-45
2022/12/29 12:38:27;;;;;;;21.08;3.25;;;9.50;99.90;;;;;;5066205;28;20036;-44
2022/12/29 12:41:14;;;;;;;20.02;3.53;;;9.50;99.90;;;;;;4965431;28;20098;-45
2022/12/29 12:44:01;;;;;;;22.25;3.20;;;9.40;99.90;;;;;;4964983;28;20054;-46
2022/12/29 12:46:45;;;;;;;19.85;3.28;;;9.50;99.90;;;;;;5042396;28;20052;-45
2022/12/29 12:49:54;;;;;;;18.85;3.28;;;9.40;99.90;;;;;;5067999;28;20373;-43
2022/12/29 12:52:57;;;;;;;17.55;3.38;;;9.40;99.90;;;;;;5062596;28;20052;-46
2022/12/29 12:55:32;;;;;;;19.27;3.15;;;9.40;99.90;;;;;;5042767;28;20170;-46
2022/12/29 12:58:07;;;;;;;18.45;3.30;;;9.40;99.90;;;;;;5061154;28;20042;-45
2022/12/29 13:00:49;;;;;;;15.27;2.85;;;9.40;99.90;;;;;;5069985;28;20051;-44
2022/12/29 13:03:48;;;;;;;15.35;3.80;;;9.40;99.90;;;;;;5068581;28;20055;-44
2022/12/29 13:06:25;;;;;;;19.45;2.97;;;9.50;99.90;;;;;;5070326;28;20036;-45
2022/12/29 13:08:53;;;;;;;18.00;3.08;;;9.70;99.90;;;;;;5069495;28;20515;-45
2022/12/29 13:11:53;;;;;;;16.92;3.03;;;9.90;99.90;;;;;;5065626;28;20078;-46
2022/12/29 13:14:31;;;;;;;13.63;2.75;;;9.90;99.90;;;;;;5066959;28;20060;-46
2022/12/29 13:17:11;;;;;;;15.30;2.30;;;9.80;99.90;;;;;;5069704;28;20037;-46
2022/12/29 13:20:09;;;;;;;20.33;3.58;;;9.70;99.90;;;;;;5067350;28;20036;-47
2022/12/29 13:22:35;;;;;;;13.02;2.95;;;9.70;99.90;;;;;;5059168;28;20044;-48
2022/12/29 13:25:12;;;;;;;17.08;2.92;;;9.70;99.90;;;;;;5066160;28;20037;-46
2022/12/29 13:28:02;;;;;;;16.95;3.20;;;9.60;99.90;;;;;;5069174;28;20033;-48
2022/12/29 13:31:12;;;;;;;22.63;3.25;;;9.70;99.90;;;;;;5069486;28;20113;-47
2022/12/29 13:33:53;;;;;;;18.20;2.80;;;9.70;99.90;;;;;;5047354;28;20041;-46
2022/12/29 13:36:43;;;;;;;18.50;3.15;;;9.60;99.90;;;;;;5073530;28;20041;-45
2022/12/29 13:39:23;;;;;;;12.25;3.00;;;9.60;99.90;;;;;;5068413;28;20040;-49
2022/12/29 13:41:54;;;;;;;16.17;2.90;;;9.50;99.90;;;;;;5082209;28;20129;-49